createdAt,value
2022-09-04T00:02:15.483Z,19.10
2022-09-04T00:04:57.578Z,19.10
2022-09-04T00:07:30.418Z,19.10
2022-09-04T00:10:12.922Z,19.10
2022-09-04T00:12:47.075Z,19.10
2022-09-04T00:15:21.056Z,19.10
2022-09-04T00:17:56.902Z,19.00
2022-09-04T00:20:58.916Z,19.00
2022-09-04T00:23:31.166Z,19.10
2022-09-04T00:26:12.599Z,19.10
2022-09-04T00:28:46.655Z,19.10
2022-09-04T00:31:20.428Z,19.00
2022-09-04T00:34:08.503Z,19.00
2022-09-04T00:36:38.850Z,19.00
2022-09-04T00:39:14.606Z,19.00
2022-09-04T00:41:47.302Z,19.10
2022-09-04T00:44:35.311Z,19.00
2022-09-04T00:47:04.940Z,19.10
2022-09-04T00:49:43.258Z,19.10
2022-09-04T00:52:18.555Z,19.10
2022-09-04T00:54:48.104Z,19.00
2022-09-04T00:57:36.863Z,19.10
2022-09-04T01:00:14.075Z,19.10
2022-09-04T01:02:43.847Z,19.10
2022-09-04T01:05:32.228Z,19.00
2022-09-04T01:08:25.129Z,19.00
2022-09-04T01:11:12.904Z,19.10
2022-09-04T01:13:47.019Z,19.10
2022-09-04T01:16:35.048Z,19.10
2022-09-04T01:19:31.479Z,19.10
2022-09-04T01:22:06.982Z,19.20
2022-09-04T01:24:55.786Z,19.10
2022-09-04T01:27:29.519Z,19.10
2022-09-04T01:29:58.951Z,19.20
2022-09-04T01:32:34.782Z,19.20
2022-09-04T01:35:11.074Z,19.20
2022-09-04T01:37:59.805Z,19.20
2022-09-04T01:40:35.375Z,19.30
2022-09-04T01:43:15.514Z,19.20
2022-09-04T01:45:44.997Z,19.20
2022-09-04T01:48:15.942Z,19.20
2022-09-04T01:50:46.842Z,19.20
2022-09-04T01:53:19.309Z,19.20
2022-09-04T01:55:52.623Z,19.30
2022-09-04T01:58:25.564Z,19.40
2022-09-04T02:00:57.543Z,19.60
2022-09-04T02:03:42.144Z,19.70
2022-09-04T02:06:18.017Z,19.80
2022-09-04T02:09:06.805Z,19.80
2022-09-04T02:11:36.236Z,19.80
2022-09-04T02:14:07.825Z,19.80
2022-09-04T02:16:57.477Z,19.80
2022-09-04T02:19:45.194Z,19.80
2022-09-04T02:22:15.835Z,19.80
2022-09-04T02:24:57.611Z,19.80
2022-09-04T02:27:42.158Z,19.80
2022-09-04T02:30:12.998Z,19.90
2022-09-04T02:32:48.254Z,19.90
2022-09-04T02:35:36.197Z,19.90
2022-09-04T02:38:11.719Z,19.80
2022-09-04T02:40:51.468Z,19.90
2022-09-04T02:43:27.144Z,19.90
2022-09-04T02:46:16.684Z,19.90
2022-09-04T02:48:55.281Z,19.90
2022-09-04T02:51:30.519Z,19.90
2022-09-04T02:54:23.074Z,19.90
2022-09-04T02:57:08.999Z,19.90
2022-09-04T02:59:48.471Z,19.90
2022-09-04T03:02:29.911Z,19.90
2022-09-04T03:05:02.250Z,19.90
2022-09-04T03:07:35.600Z,19.90
2022-09-04T03:10:25.158Z,19.90
2022-09-04T03:13:17.741Z,20.00
2022-09-04T03:15:49.325Z,20.00
2022-09-04T03:18:18.841Z,20.00
2022-09-04T03:21:08.833Z,20.00
2022-09-04T03:23:38.259Z,20.00
2022-09-04T03:26:22.302Z,20.00
2022-09-04T03:28:51.891Z,20.00
2022-09-04T03:31:31.629Z,20.00
2022-09-04T03:34:04.271Z,20.00
2022-09-04T03:36:46.570Z,20.10
2022-09-04T03:39:16.056Z,20.10
2022-09-04T03:41:47.696Z,20.00
2022-09-04T03:44:37.267Z,20.00
2022-09-04T03:47:22.772Z,20.10
2022-09-04T03:50:03.081Z,20.00
2022-09-04T03:52:35.760Z,20.00
2022-09-04T03:55:10.145Z,20.00
2022-09-04T03:57:39.673Z,20.00
2022-09-04T04:00:19.475Z,20.00
2022-09-04T04:03:08.446Z,20.00
2022-09-04T04:06:07.617Z,20.00
2022-09-04T04:08:43.044Z,20.00
2022-09-04T04:11:33.196Z,20.10
2022-09-04T04:14:26.471Z,20.10
2022-09-04T04:16:56.530Z,20.10
2022-09-04T04:19:43.357Z,20.10
2022-09-04T04:22:31.302Z,20.10
2022-09-04T04:25:06.932Z,20.00
2022-09-04T04:27:37.418Z,20.10
2022-09-04T04:30:08.244Z,20.10
2022-09-04T04:32:45.193Z,20.00
2022-09-04T04:35:26.321Z,20.00
2022-09-04T04:37:56.909Z,20.00
2022-09-04T04:40:26.537Z,19.90
2022-09-04T04:43:25.671Z,20.00
2022-09-04T04:46:13.515Z,19.90
2022-09-04T04:48:55.688Z,19.90
2022-09-04T04:51:35.238Z,19.90
2022-09-04T04:54:20.110Z,19.90
2022-09-04T04:56:55.140Z,19.90
2022-09-04T04:59:25.166Z,19.90
2022-09-04T05:01:58.010Z,19.80
2022-09-04T05:04:50.413Z,19.80
2022-09-04T05:07:33.292Z,19.90
2022-09-04T05:10:07.400Z,20.10
2022-09-04T05:12:38.081Z,20.10
2022-09-04T05:15:22.862Z,20.30
2022-09-04T05:17:56.598Z,20.30
2022-09-04T05:20:26.241Z,20.40
2022-09-04T05:23:14.754Z,20.40
2022-09-04T05:25:47.410Z,20.40
2022-09-04T05:28:20.049Z,20.40
2022-09-04T05:30:53.993Z,20.40
2022-09-04T05:33:38.765Z,20.40
2022-09-04T05:36:15.395Z,20.40
2022-09-04T05:38:48.212Z,20.40
2022-09-04T05:41:21.922Z,20.40
2022-09-04T05:44:00.615Z,20.40
2022-09-04T05:46:30.154Z,20.30
2022-09-04T05:49:18.277Z,20.40
2022-09-04T05:51:50.674Z,20.50
2022-09-04T05:54:20.524Z,20.50
2022-09-04T05:57:15.881Z,20.50
2022-09-04T06:00:00.929Z,20.50
2022-09-04T06:02:53.879Z,20.50
2022-09-04T06:05:41.916Z,20.60
2022-09-04T06:08:11.550Z,20.70
2022-09-04T06:11:00.952Z,20.80
2022-09-04T06:13:30.552Z,20.80
2022-09-04T06:16:18.344Z,20.80
2022-09-04T06:18:47.823Z,20.80
2022-09-04T06:21:35.568Z,20.70
2022-09-04T06:24:05.176Z,20.70
2022-09-04T06:26:37.347Z,20.80
2022-09-04T06:29:09.932Z,20.90
2022-09-04T06:31:46.526Z,21.00
2022-09-04T06:34:34.190Z,21.10
2022-09-04T06:37:09.894Z,21.10
2022-09-04T06:39:42.194Z,20.90
2022-09-04T06:42:17.954Z,20.90
2022-09-04T06:44:50.288Z,20.80
2022-09-04T06:47:28.819Z,20.70
2022-09-04T06:50:33.607Z,20.70
2022-09-04T06:53:19.374Z,20.80
2022-09-04T06:56:04.258Z,21.10
2022-09-04T06:58:45.809Z,22.10
2022-09-04T07:01:17.937Z,21.80
2022-09-04T07:04:02.718Z,21.50
2022-09-04T07:06:50.323Z,21.40
2022-09-04T07:09:22.612Z,21.20
2022-09-04T07:12:09.216Z,21.20
2022-09-04T07:14:42.481Z,21.20
2022-09-04T07:17:35.663Z,21.10
2022-09-04T07:20:09.011Z,21.10
2022-09-04T07:22:41.705Z,21.20
2022-09-04T07:25:18.442Z,21.30
2022-09-04T07:27:54.375Z,22.10
2022-09-04T07:30:27.084Z,23.80
2022-09-04T07:33:01.218Z,24.90
2022-09-04T07:35:38.244Z,25.60
2022-09-04T07:38:08.618Z,25.90
2022-09-04T07:40:39.125Z,26.20
2022-09-04T07:43:27.293Z,26.60
2022-09-04T07:46:05.365Z,26.40
2022-09-04T07:48:45.187Z,25.10
2022-09-04T07:51:16.848Z,25.50
2022-09-04T07:54:05.418Z,26.00
2022-09-04T07:56:55.968Z,26.30
2022-09-04T07:59:43.872Z,26.00
2022-09-04T08:02:35.275Z,25.00
2022-09-04T08:05:20.893Z,24.70
2022-09-04T08:08:11.835Z,24.20
2022-09-04T08:10:44.282Z,23.90
2022-09-04T08:13:15.410Z,23.70
2022-09-04T08:16:03.106Z,23.50
2022-09-04T08:18:36.396Z,23.40
2022-09-04T08:21:24.155Z,23.30
2022-09-04T08:23:53.662Z,23.20
2022-09-04T08:26:28.426Z,23.10
2022-09-04T08:28:58.346Z,23.20
2022-09-04T08:31:30.652Z,23.30
2022-09-04T08:34:11.701Z,23.60
2022-09-04T08:36:59.864Z,23.50
2022-09-04T08:39:38.212Z,23.60
2022-09-04T08:42:13.757Z,23.60
2022-09-04T08:45:02.617Z,23.50
2022-09-04T08:47:53.943Z,23.30
2022-09-04T08:50:55.657Z,23.30
2022-09-04T08:53:32.216Z,23.10
2022-09-04T08:56:07.894Z,23.00
2022-09-04T08:58:47.634Z,22.90
2022-09-04T09:01:18.104Z,22.80
2022-09-04T09:04:06.066Z,22.70
2022-09-04T09:06:55.100Z,22.60
2022-09-04T09:09:45.430Z,22.50
2022-09-04T09:12:40.221Z,22.50
2022-09-04T09:15:23.301Z,22.60
2022-09-04T09:18:04.608Z,22.50
2022-09-04T09:20:53.398Z,22.50
2022-09-04T09:23:25.294Z,22.30
2022-09-04T09:25:57.902Z,22.30
2022-09-04T09:28:45.490Z,22.20
2022-09-04T09:31:35.651Z,22.10
2022-09-04T09:34:06.423Z,22.10
2022-09-04T09:36:45.253Z,22.00
2022-09-04T09:39:29.997Z,21.90
2022-09-04T09:42:00.730Z,21.90
2022-09-04T09:44:48.590Z,21.80
2022-09-04T09:47:27.531Z,21.80
2022-09-04T09:50:15.852Z,21.70
2022-09-04T09:52:45.361Z,21.70
2022-09-04T09:55:30.044Z,21.60
2022-09-04T09:58:05.779Z,21.50
2022-09-04T10:00:57.224Z,21.50
2022-09-04T10:03:44.939Z,21.40
2022-09-04T10:06:17.494Z,21.30
2022-09-04T10:09:09.233Z,21.30
2022-09-04T10:11:45.215Z,21.30
2022-09-04T10:14:24.993Z,21.20
2022-09-04T10:17:13.406Z,21.20
2022-09-04T10:19:52.525Z,21.20
2022-09-04T10:22:26.809Z,21.10
2022-09-04T10:25:03.208Z,21.10
2022-09-04T10:27:43.172Z,21.10
2022-09-04T10:30:27.456Z,21.00
2022-09-04T10:33:11.352Z,20.90
2022-09-04T10:35:50.460Z,20.90
2022-09-04T10:38:19.996Z,20.90
2022-09-04T10:40:51.594Z,20.80
2022-09-04T10:43:34.205Z,20.80
2022-09-04T10:46:05.206Z,20.70
2022-09-04T10:48:45.504Z,20.70
2022-09-04T10:51:20.533Z,20.60
2022-09-04T10:53:54.305Z,20.60
2022-09-04T10:56:27.476Z,20.60
2022-09-04T10:59:06.841Z,20.50
2022-09-04T11:01:55.899Z,20.50
2022-09-04T11:04:28.450Z,20.30
2022-09-04T11:07:28.859Z,20.30
2022-09-04T11:10:01.391Z,20.20
2022-09-04T11:12:49.299Z,20.10
2022-09-04T11:15:24.546Z,20.10
2022-09-04T11:17:57.029Z,20.10
2022-09-04T11:20:37.493Z,20.00
2022-09-04T11:23:12.944Z,19.90
2022-09-04T11:25:53.421Z,19.90
2022-09-04T11:29:01.490Z,19.80
2022-09-04T11:31:54.095Z,19.70
2022-09-04T11:34:35.536Z,19.60
2022-09-04T11:37:23.444Z,19.50
2022-09-04T11:40:11.877Z,19.40
2022-09-04T11:42:42.721Z,19.40
2022-09-04T11:45:51.532Z,19.40
2022-09-04T11:48:32.539Z,19.40
2022-09-04T11:51:20.177Z,19.40
2022-09-04T11:53:56.233Z,19.30
2022-09-04T11:56:35.537Z,19.30
2022-09-04T11:59:08.838Z,19.30
2022-09-04T12:02:02.407Z,19.20
2022-09-04T12:04:53.864Z,19.20
2022-09-04T12:07:52.185Z,19.20
2022-09-04T12:10:31.604Z,19.20
2022-09-04T12:13:14.727Z,19.10
2022-09-04T12:16:03.348Z,19.10
2022-09-04T12:18:53.778Z,19.10
2022-09-04T12:21:36.428Z,19.10
2022-09-04T12:24:24.519Z,19.00
2022-09-04T12:27:02.850Z,19.00
2022-09-04T12:29:52.028Z,19.00
2022-09-04T12:32:24.570Z,19.00
2022-09-04T12:34:56.930Z,19.00
2022-09-04T12:37:38.461Z,18.90
2022-09-04T12:40:26.966Z,18.90
2022-09-04T12:43:02.336Z,18.90
2022-09-04T12:45:37.678Z,18.90
2022-09-04T12:48:20.338Z,18.90
2022-09-04T12:50:59.039Z,18.80
2022-09-04T12:53:37.201Z,18.80
2022-09-04T12:56:11.502Z,18.80
2022-09-04T12:58:56.173Z,18.70
2022-09-04T13:01:45.023Z,18.70
2022-09-04T13:04:27.808Z,18.70
2022-09-04T13:07:15.867Z,18.70
2022-09-04T13:10:04.312Z,18.70
2022-09-04T13:12:49.816Z,18.70
2022-09-04T13:15:20.679Z,18.70
2022-09-04T13:17:53.388Z,18.60
2022-09-04T13:20:23.862Z,18.60
2022-09-04T13:23:11.102Z,18.60
2022-09-04T13:25:43.838Z,18.60
2022-09-04T13:28:39.183Z,18.60
2022-09-04T13:31:21.900Z,18.60
2022-09-04T13:33:52.544Z,18.50
2022-09-04T13:36:25.175Z,18.50
2022-09-04T13:39:03.193Z,18.50
2022-09-04T13:41:55.302Z,18.50
2022-09-04T13:44:24.818Z,18.40
2022-09-04T13:47:00.586Z,18.40
2022-09-04T13:49:41.330Z,18.40
2022-09-04T13:52:12.626Z,18.40
2022-09-04T13:54:44.091Z,18.50
2022-09-04T13:57:19.611Z,18.40
2022-09-04T13:59:50.861Z,18.40
2022-09-04T14:02:25.575Z,18.40
2022-09-04T14:04:59.346Z,18.40
2022-09-04T14:07:31.604Z,18.40
2022-09-04T14:10:01.686Z,18.40
2022-09-04T14:12:32.712Z,18.30
2022-09-04T14:15:20.672Z,18.30
2022-09-04T14:17:56.864Z,18.40
2022-09-04T14:20:29.210Z,18.40
2022-09-04T14:23:11.922Z,18.40
2022-09-04T14:25:46.480Z,18.40
2022-09-04T14:28:16.126Z,18.30
2022-09-04T14:30:54.033Z,18.30
2022-09-04T14:33:30.263Z,18.30
2022-09-04T14:36:09.674Z,18.30
2022-09-04T14:38:40.675Z,18.30
2022-09-04T14:41:22.259Z,18.30
2022-09-04T14:44:13.988Z,18.30
2022-09-04T14:46:51.195Z,18.30
2022-09-04T14:49:22.571Z,18.30
2022-09-04T14:51:53.652Z,18.30
2022-09-04T14:54:27.404Z,18.30
2022-09-04T14:56:58.362Z,18.20
2022-09-04T14:59:30.936Z,18.20
2022-09-04T15:02:09.334Z,18.20
2022-09-04T15:04:58.725Z,18.20
2022-09-04T15:07:43.220Z,18.20
2022-09-04T15:10:32.638Z,18.20
2022-09-04T15:13:20.354Z,18.20
2022-09-04T15:15:55.419Z,18.20
2022-09-04T15:18:28.418Z,18.20
2022-09-04T15:21:02.136Z,18.20
2022-09-04T15:23:31.679Z,18.10
2022-09-04T15:26:04.464Z,18.20
2022-09-04T15:28:44.308Z,18.20
2022-09-04T15:31:16.493Z,18.20
2022-09-04T15:33:47.358Z,18.10
2022-09-04T15:36:19.244Z,18.10
2022-09-04T15:38:51.918Z,18.10
2022-09-04T15:41:38.534Z,18.10
2022-09-04T15:44:29.938Z,18.10
2022-09-04T15:47:08.735Z,18.10
2022-09-04T15:49:53.839Z,18.10
2022-09-04T15:52:25.509Z,18.10
2022-09-04T15:54:56.405Z,18.10
2022-09-04T15:57:36.866Z,18.10
2022-09-04T16:00:13.813Z,18.10
2022-09-04T16:02:55.870Z,18.10
2022-09-04T16:05:33.513Z,18.10
2022-09-04T16:08:24.687Z,18.10
2022-09-04T16:11:04.737Z,18.10
2022-09-04T16:13:42.506Z,18.10
2022-09-04T16:16:12.010Z,18.10
2022-09-04T16:18:59.690Z,18.10
2022-09-04T16:21:41.872Z,18.10
2022-09-04T16:24:16.443Z,18.10
2022-09-04T16:26:48.238Z,18.10
2022-09-04T16:29:26.430Z,18.10
2022-09-04T16:31:56.588Z,18.10
2022-09-04T16:34:27.356Z,18.10
2022-09-04T16:37:02.966Z,18.10
2022-09-04T16:39:37.474Z,18.10
2022-09-04T16:42:11.591Z,18.10
2022-09-04T16:44:46.587Z,18.10
2022-09-04T16:47:17.566Z,18.10
2022-09-04T16:50:01.818Z,18.10
2022-09-04T16:52:35.751Z,18.10
2022-09-04T16:55:09.800Z,18.00
2022-09-04T16:57:51.687Z,18.10
2022-09-04T17:00:23.477Z,18.00
2022-09-04T17:02:53.377Z,18.00
2022-09-04T17:05:28.933Z,18.00
2022-09-04T17:08:17.146Z,18.00
2022-09-04T17:10:52.429Z,18.00
2022-09-04T17:13:44.076Z,18.00
2022-09-04T17:16:15.668Z,18.00
2022-09-04T17:18:49.068Z,18.00
2022-09-04T17:28:41.219Z,18.00
2022-09-04T17:28:59.747Z,18.00
2022-09-04T17:29:19.382Z,18.00
2022-09-04T17:30:25.642Z,17.90
2022-09-04T17:36:39.036Z,18.00
2022-09-04T17:40:38.422Z,17.90
2022-09-04T17:41:31.321Z,18.00
2022-09-04T17:42:09.590Z,18.00
2022-09-04T17:44:39.652Z,17.90
2022-09-04T17:47:19.805Z,17.90
2022-09-04T17:49:52.600Z,17.90
2022-09-04T17:52:28.189Z,17.90
2022-09-04T17:55:03.157Z,17.90
2022-09-04T17:57:47.566Z,17.90
2022-09-04T18:00:26.058Z,17.90
2022-09-04T18:03:00.458Z,17.90
2022-09-04T18:05:30.434Z,17.90
2022-09-04T18:08:13.049Z,17.90
2022-09-04T18:11:03.071Z,17.90
2022-09-04T18:13:37.415Z,17.80
2022-09-04T18:16:20.806Z,17.80
2022-09-04T18:18:57.035Z,17.80
2022-09-04T18:21:32.688Z,17.80
2022-09-04T18:24:02.162Z,17.80
2022-09-04T18:27:01.059Z,17.80
2022-09-04T18:36:06.359Z,17.80
2022-09-04T18:37:12.508Z,17.80
2022-09-04T18:37:26.390Z,17.80
2022-09-04T18:38:35.435Z,17.80
2022-09-04T18:44:31.888Z,17.80
2022-09-04T18:50:36.803Z,17.80
2022-09-04T18:50:40.154Z,17.80
2022-09-04T18:50:45.118Z,17.80
2022-09-04T18:53:17.976Z,17.80
2022-09-04T18:55:49.004Z,17.80
2022-09-04T18:58:25.084Z,17.70
2022-09-04T19:00:59.399Z,17.80
2022-09-04T19:03:32.909Z,17.70
2022-09-04T19:06:07.852Z,17.70
2022-09-04T19:08:39.562Z,17.70
2022-09-04T19:11:20.669Z,17.70
2022-09-04T19:14:10.491Z,17.70
2022-09-04T19:16:50.059Z,17.70
2022-09-04T19:19:25.752Z,17.70
2022-09-04T19:22:11.293Z,17.70
2022-09-04T19:24:42.088Z,17.70
2022-09-04T19:27:26.862Z,17.70
2022-09-04T19:30:17.756Z,17.70
2022-09-04T19:33:01.544Z,17.70
2022-09-04T19:35:33.781Z,17.70
2022-09-04T19:42:50.892Z,17.70
2022-09-04T19:45:57.292Z,17.70
2022-09-04T19:46:16.321Z,17.70
2022-09-04T19:47:27.436Z,17.70
2022-09-04T19:53:19.220Z,17.70
2022-09-04T19:53:30.286Z,17.70
2022-09-04T19:55:56.631Z,17.60
2022-09-04T19:58:35.222Z,17.70
2022-09-04T20:01:04.879Z,17.60
2022-09-04T20:03:39.454Z,17.60
2022-09-04T20:06:21.192Z,17.60
2022-09-04T20:09:00.587Z,17.60
2022-09-04T20:11:36.099Z,17.60
2022-09-04T20:14:34.957Z,17.60
2022-09-04T20:17:24.507Z,17.60
2022-09-04T20:19:54.407Z,17.50
2022-09-04T20:22:37.327Z,17.60
2022-09-04T20:25:09.843Z,17.50
2022-09-04T20:27:47.418Z,17.60
2022-09-04T20:30:21.222Z,17.60
2022-09-04T20:32:59.754Z,17.60
2022-09-04T20:35:49.006Z,17.60
2022-09-04T20:38:23.360Z,17.50
2022-09-04T20:40:57.281Z,17.60
2022-09-04T20:43:32.827Z,17.60
2022-09-04T20:50:20.000Z,17.50
2022-09-04T20:52:50.300Z,17.50
2022-09-04T20:52:50.732Z,17.60
2022-09-04T20:54:56.315Z,17.60
2022-09-04T21:03:05.647Z,17.50
2022-09-04T21:03:12.857Z,17.50
2022-09-04T21:03:34.751Z,17.50
2022-09-04T21:06:19.838Z,17.50
2022-09-04T21:08:55.262Z,17.50
2022-09-04T21:11:40.639Z,17.50
2022-09-04T21:14:18.448Z,17.50
2022-09-04T21:17:27.505Z,17.50
2022-09-04T21:19:55.892Z,17.50
2022-09-04T21:22:38.305Z,17.50
2022-09-04T21:25:23.358Z,17.50
2022-09-04T21:28:11.043Z,17.50
2022-09-04T21:30:44.752Z,17.40
2022-09-04T21:33:28.170Z,17.40
2022-09-04T21:36:25.276Z,17.40
2022-09-04T21:39:11.524Z,17.40
2022-09-04T21:41:44.548Z,17.40
2022-09-04T21:44:32.463Z,17.30
2022-09-04T21:47:20.118Z,17.30
2022-09-04T21:50:08.686Z,17.30
2022-09-04T21:52:40.905Z,17.30
2022-09-04T21:57:05.547Z,17.30
2022-09-04T22:02:37.797Z,17.30
2022-09-04T22:02:43.254Z,17.30
2022-09-04T22:04:14.303Z,17.30
2022-09-04T22:10:33.736Z,17.30
2022-09-04T22:13:41.679Z,17.30
2022-09-04T22:13:46.220Z,17.20
2022-09-04T22:15:59.190Z,17.20
2022-09-04T22:18:43.812Z,17.20
2022-09-04T22:21:17.895Z,17.20
2022-09-04T22:24:10.425Z,17.30
2022-09-04T22:26:45.769Z,17.20
2022-09-04T22:29:39.838Z,17.20
2022-09-04T22:32:25.037Z,17.20
2022-09-04T22:34:57.255Z,17.20
2022-09-04T22:37:44.821Z,17.20
2022-09-04T22:40:29.791Z,17.20
2022-09-04T22:42:59.728Z,17.20
2022-09-04T22:45:29.160Z,17.20
2022-09-04T22:48:18.763Z,17.20
2022-09-04T22:50:50.635Z,17.20
2022-09-04T22:53:38.731Z,17.10
2022-09-04T22:56:24.449Z,17.20
2022-09-04T22:59:32.806Z,17.20
2022-09-04T23:02:14.154Z,17.20
2022-09-04T23:04:45.520Z,17.20
2022-09-04T23:10:15.822Z,17.20
2022-09-04T23:13:50.842Z,17.20
2022-09-04T23:13:58.886Z,17.30
2022-09-04T23:16:35.009Z,17.20
2022-09-04T23:19:58.036Z,17.20
2022-09-04T23:26:38.300Z,17.30
2022-09-04T23:26:50.370Z,17.30
2022-09-04T23:28:28.267Z,17.20
2022-09-04T23:31:27.240Z,17.30
2022-09-04T23:33:58.757Z,17.20
2022-09-04T23:36:46.668Z,17.30
2022-09-04T23:39:48.683Z,17.30
2022-09-04T23:42:30.674Z,17.20
2022-09-04T23:45:05.961Z,17.20
2022-09-04T23:47:49.578Z,17.20
2022-09-04T23:50:28.151Z,17.30
2022-09-04T23:53:04.140Z,17.30
2022-09-04T23:55:49.158Z,17.30
2022-09-04T23:58:51.572Z,17.30
